createdAt,value
2023-01-31T00:01:39.956Z,52.96
2023-01-31T00:04:12.584Z,52.97
2023-01-31T00:06:45.142Z,53.10
2023-01-31T00:09:12.927Z,53.06
2023-01-31T00:11:40.012Z,53.01
2023-01-31T00:14:08.164Z,52.98
2023-01-31T00:16:35.367Z,53.17
2023-01-31T00:19:02.997Z,53.28
2023-01-31T00:21:31.545Z,53.13
2023-01-31T00:23:58.980Z,53.41
2023-01-31T00:26:30.757Z,53.40
2023-01-31T00:28:59.316Z,53.50
2023-01-31T00:31:28.044Z,53.42
2023-01-31T00:33:56.274Z,53.41
2023-01-31T00:36:27.423Z,53.61
2023-01-31T00:38:57.565Z,53.55
2023-01-31T00:41:26.164Z,53.56
2023-01-31T00:43:53.140Z,53.71
2023-01-31T00:46:23.905Z,53.92
2023-01-31T00:48:54.443Z,53.60
2023-01-31T00:51:22.076Z,53.63
2023-01-31T00:53:50.236Z,53.42
2023-01-31T00:56:20.100Z,53.67
2023-01-31T00:58:46.872Z,53.68
2023-01-31T01:01:26.205Z,53.76
2023-01-31T01:03:54.634Z,53.97
2023-01-31T01:06:21.884Z,54.04
2023-01-31T01:08:48.986Z,53.87
2023-01-31T01:11:25.101Z,53.84
2023-01-31T01:13:52.391Z,53.90
2023-01-31T01:16:24.337Z,53.88
2023-01-31T01:18:51.787Z,53.98
2023-01-31T01:21:24.467Z,54.46
2023-01-31T01:23:51.897Z,54.37
2023-01-31T01:26:25.285Z,54.39
2023-01-31T01:28:53.372Z,54.32
2023-01-31T01:31:21.048Z,54.72
2023-01-31T01:33:49.448Z,54.65
2023-01-31T01:36:22.183Z,54.72
2023-01-31T01:38:49.289Z,54.83
2023-01-31T01:41:16.327Z,54.67
2023-01-31T01:43:42.891Z,54.70
2023-01-31T01:46:26.737Z,54.74
2023-01-31T01:48:59.264Z,54.77
2023-01-31T01:51:27.796Z,54.86
2023-01-31T01:53:58.665Z,55.05
2023-01-31T01:56:37.594Z,54.69
2023-01-31T01:59:16.753Z,54.78
2023-01-31T02:01:44.525Z,54.78
2023-01-31T02:04:17.489Z,54.51
2023-01-31T02:06:45.978Z,54.94
2023-01-31T02:09:48.957Z,54.95
2023-01-31T02:12:16.131Z,55.03
2023-01-31T02:14:44.625Z,54.92
2023-01-31T02:17:17.502Z,54.81
2023-01-31T02:20:06.327Z,55.14
2023-01-31T02:22:53.884Z,54.90
2023-01-31T02:25:51.468Z,54.99
2023-01-31T02:28:40.045Z,54.96
2023-01-31T02:31:55.089Z,54.79
2023-01-31T02:34:25.011Z,54.82
2023-01-31T02:37:18.180Z,55.01
2023-01-31T02:39:59.956Z,55.04
2023-01-31T02:43:02.734Z,54.89
2023-01-31T02:45:41.861Z,55.00
2023-01-31T02:48:30.935Z,54.98
2023-01-31T02:51:19.110Z,55.07
2023-01-31T02:54:15.927Z,55.04
2023-01-31T02:56:45.710Z,55.13
2023-01-31T02:59:14.407Z,55.08
2023-01-31T03:01:47.918Z,55.24
2023-01-31T03:04:15.367Z,55.15
2023-01-31T03:10:10.157Z,55.03
2023-01-31T03:12:47.452Z,55.14
2023-01-31T03:16:01.644Z,55.16
2023-01-31T03:18:35.039Z,54.98
2023-01-31T03:21:14.450Z,54.92
2023-01-31T03:23:45.436Z,55.05
2023-01-31T03:26:13.017Z,54.90
2023-01-31T03:28:42.519Z,55.08
2023-01-31T03:31:38.385Z,54.89
2023-01-31T03:34:08.551Z,54.99
2023-01-31T03:37:02.481Z,55.09
2023-01-31T03:40:05.849Z,55.11
2023-01-31T03:42:46.729Z,55.11
2023-01-31T03:45:55.847Z,55.47
2023-01-31T03:48:26.399Z,55.36
2023-01-31T03:50:59.467Z,55.58
2023-01-31T03:53:32.649Z,55.54
2023-01-31T03:56:13.444Z,55.51
2023-01-31T03:58:50.862Z,55.45
2023-01-31T04:01:19.960Z,55.51
2023-01-31T04:03:59.479Z,55.73
2023-01-31T04:06:27.469Z,55.49
2023-01-31T04:08:55.280Z,55.41
2023-01-31T04:11:26.170Z,55.49
2023-01-31T04:13:53.022Z,55.36
2023-01-31T04:16:20.045Z,55.60
2023-01-31T04:18:46.959Z,55.70
2023-01-31T04:21:15.331Z,55.50
2023-01-31T04:23:42.377Z,55.36
2023-01-31T04:26:09.035Z,55.59
2023-01-31T04:28:35.668Z,55.49
2023-01-31T04:31:02.351Z,55.48
2023-01-31T04:33:28.993Z,55.25
2023-01-31T04:35:55.692Z,55.40
2023-01-31T04:38:22.365Z,55.54
2023-01-31T04:40:49.118Z,55.35
2023-01-31T04:43:15.768Z,55.62
2023-01-31T04:45:42.607Z,55.60
2023-01-31T04:48:09.711Z,55.65
2023-01-31T04:50:36.987Z,55.74
2023-01-31T04:53:05.073Z,55.65
2023-01-31T04:55:31.837Z,55.37
2023-01-31T04:57:58.546Z,55.45
2023-01-31T05:00:25.555Z,55.40
2023-01-31T05:02:53.360Z,55.43
2023-01-31T05:05:20.926Z,55.50
2023-01-31T05:07:50.141Z,55.74
2023-01-31T05:10:18.157Z,55.69
2023-01-31T05:12:45.236Z,55.67
2023-01-31T05:15:12.063Z,55.65
2023-01-31T05:17:39.010Z,55.77
2023-01-31T05:20:06.644Z,55.70
2023-01-31T05:22:33.914Z,55.50
2023-01-31T05:25:00.644Z,55.71
2023-01-31T05:27:27.468Z,55.52
2023-01-31T05:29:56.566Z,55.56
2023-01-31T05:32:23.530Z,55.57
2023-01-31T05:34:50.169Z,55.70
2023-01-31T05:37:16.862Z,55.71
2023-01-31T05:39:43.500Z,55.77
2023-01-31T05:42:10.261Z,55.92
2023-01-31T05:44:37.035Z,55.58
2023-01-31T05:47:03.944Z,55.58
2023-01-31T05:49:34.545Z,55.48
2023-01-31T05:52:01.960Z,55.33
2023-01-31T05:54:32.530Z,55.27
2023-01-31T05:56:59.357Z,55.05
2023-01-31T05:59:26.468Z,54.96
2023-01-31T06:01:54.467Z,55.04
2023-01-31T06:04:21.363Z,55.49
2023-01-31T06:06:48.006Z,55.19
2023-01-31T06:09:14.627Z,55.58
2023-01-31T06:11:41.288Z,55.59
2023-01-31T06:14:08.820Z,55.54
2023-01-31T06:16:35.570Z,55.83
2023-01-31T06:19:02.444Z,55.69
2023-01-31T06:21:29.457Z,55.79
2023-01-31T06:23:56.561Z,55.47
2023-01-31T06:26:23.885Z,55.86
2023-01-31T06:28:50.628Z,55.90
2023-01-31T06:31:18.625Z,55.98
2023-01-31T06:33:47.791Z,56.07
2023-01-31T06:36:18.597Z,56.15
2023-01-31T06:38:49.241Z,56.30
2023-01-31T06:41:16.345Z,56.36
2023-01-31T06:43:43.010Z,56.11
2023-01-31T06:46:09.706Z,56.51
2023-01-31T06:48:36.490Z,56.58
2023-01-31T06:51:03.194Z,56.35
2023-01-31T06:53:30.378Z,56.36
2023-01-31T06:55:57.266Z,56.57
2023-01-31T06:58:24.295Z,56.45
2023-01-31T07:00:50.959Z,56.63
2023-01-31T07:03:19.334Z,56.65
2023-01-31T07:05:46.519Z,56.68
2023-01-31T07:08:14.602Z,56.67
2023-01-31T07:10:41.515Z,56.47
2023-01-31T07:13:08.336Z,55.95
2023-01-31T07:15:34.884Z,55.52
2023-01-31T07:18:01.680Z,56.08
2023-01-31T07:20:28.318Z,56.09
2023-01-31T07:22:58.450Z,56.15
2023-01-31T07:25:26.232Z,55.65
2023-01-31T07:27:53.188Z,55.54
2023-01-31T07:30:19.929Z,55.31
2023-01-31T07:32:46.636Z,55.00
2023-01-31T07:35:13.260Z,54.92
2023-01-31T07:37:40.725Z,54.77
2023-01-31T07:40:08.194Z,54.80
2023-01-31T07:42:34.755Z,54.75
2023-01-31T07:45:13.190Z,54.75
2023-01-31T07:47:48.565Z,54.64
2023-01-31T07:50:15.189Z,54.66
2023-01-31T07:52:41.868Z,54.67
2023-01-31T07:55:08.906Z,54.92
2023-01-31T07:57:35.608Z,54.78
2023-01-31T08:00:02.650Z,54.73
2023-01-31T08:02:56.965Z,54.28
2023-01-31T08:05:23.842Z,54.38
2023-01-31T08:08:10.360Z,54.07
2023-01-31T08:10:37.651Z,54.23
2023-01-31T08:13:04.699Z,54.31
2023-01-31T08:15:31.806Z,53.91
2023-01-31T08:17:58.806Z,53.62
2023-01-31T08:20:25.559Z,53.54
2023-01-31T08:22:52.355Z,53.56
2023-01-31T08:25:20.712Z,53.54
2023-01-31T08:27:47.572Z,53.58
2023-01-31T08:30:14.518Z,53.34
2023-01-31T08:32:41.251Z,53.21
2023-01-31T08:35:08.527Z,53.35
2023-01-31T08:37:35.428Z,53.25
2023-01-31T08:40:02.313Z,52.89
2023-01-31T08:42:29.328Z,53.12
2023-01-31T08:44:56.086Z,53.14
2023-01-31T08:47:22.837Z,53.24
2023-01-31T08:49:49.581Z,52.90
2023-01-31T08:52:16.349Z,53.19
2023-01-31T08:54:43.071Z,53.15
2023-01-31T08:57:09.755Z,53.06
2023-01-31T08:59:36.525Z,53.02
2023-01-31T09:02:05.769Z,53.03
2023-01-31T09:04:32.441Z,53.08
2023-01-31T09:06:59.127Z,52.98
2023-01-31T09:09:26.179Z,52.99
2023-01-31T09:12:04.755Z,52.93
2023-01-31T09:14:31.465Z,53.33
2023-01-31T09:16:58.171Z,52.73
2023-01-31T09:19:24.910Z,52.79
2023-01-31T09:21:51.536Z,52.94
2023-01-31T09:24:18.149Z,52.71
2023-01-31T09:26:44.877Z,52.59
2023-01-31T09:29:11.496Z,52.61
2023-01-31T09:31:38.668Z,52.77
2023-01-31T09:34:05.484Z,52.58
2023-01-31T09:36:32.342Z,52.51
2023-01-31T09:38:59.518Z,52.59
2023-01-31T09:41:46.295Z,52.64
2023-01-31T09:44:12.957Z,52.52
2023-01-31T09:46:45.218Z,52.45
2023-01-31T09:49:20.789Z,52.68
2023-01-31T09:51:53.056Z,52.74
2023-01-31T09:54:27.029Z,52.75
2023-01-31T09:57:08.499Z,52.73
2023-01-31T10:00:08.627Z,52.64
2023-01-31T10:03:22.818Z,52.65
2023-01-31T10:05:55.393Z,52.62
2023-01-31T10:08:46.230Z,52.55
2023-01-31T10:11:28.320Z,52.61
2023-01-31T10:14:27.948Z,52.55
2023-01-31T10:17:12.508Z,52.44
2023-01-31T10:19:49.547Z,52.77
2023-01-31T10:22:28.390Z,52.91
2023-01-31T10:25:00.023Z,52.66
2023-01-31T10:27:43.879Z,52.62
2023-01-31T10:30:24.742Z,52.63
2023-01-31T10:32:57.821Z,52.53
2023-01-31T10:35:31.910Z,52.62
2023-01-31T10:38:14.262Z,52.64
2023-01-31T10:40:45.297Z,52.46
2023-01-31T10:43:29.243Z,52.44
2023-01-31T10:46:00.974Z,52.54
2023-01-31T10:48:29.678Z,52.61
2023-01-31T10:51:43.996Z,52.35
2023-01-31T10:54:37.894Z,52.46
2023-01-31T10:57:04.667Z,52.63
2023-01-31T10:59:34.995Z,52.31
2023-01-31T11:02:03.078Z,52.53
2023-01-31T11:04:38.860Z,52.47
2023-01-31T11:07:06.452Z,52.39
2023-01-31T11:09:37.039Z,52.29
2023-01-31T11:12:06.742Z,52.24
2023-01-31T11:14:33.729Z,52.10
2023-01-31T11:17:06.697Z,52.14
2023-01-31T11:19:38.477Z,52.01
2023-01-31T11:22:06.638Z,52.34
2023-01-31T11:24:37.404Z,52.32
2023-01-31T11:27:07.639Z,51.95
2023-01-31T11:29:47.445Z,52.01
2023-01-31T11:32:33.231Z,52.17
2023-01-31T11:35:05.697Z,52.13
2023-01-31T11:37:34.847Z,52.11
2023-01-31T11:40:01.660Z,52.11
2023-01-31T11:42:28.663Z,51.86
2023-01-31T11:44:55.848Z,51.89
2023-01-31T11:47:32.767Z,51.82
2023-01-31T11:50:01.196Z,52.22
2023-01-31T11:52:31.363Z,52.08
2023-01-31T11:55:18.493Z,52.01
2023-01-31T11:57:45.368Z,52.02
2023-01-31T12:00:27.859Z,52.40
2023-01-31T12:03:08.555Z,52.04
2023-01-31T12:05:42.678Z,52.11
2023-01-31T12:08:30.346Z,52.84
2023-01-31T12:10:58.176Z,52.37
2023-01-31T12:13:25.736Z,52.63
2023-01-31T12:15:58.154Z,52.45
2023-01-31T12:18:32.694Z,52.44
2023-01-31T12:21:15.857Z,52.48
2023-01-31T12:23:55.612Z,52.23
2023-01-31T12:26:43.569Z,52.54
2023-01-31T12:29:16.098Z,52.61
2023-01-31T12:32:07.020Z,52.33
2023-01-31T12:34:59.316Z,52.34
2023-01-31T12:37:39.133Z,52.35
2023-01-31T12:40:25.188Z,52.18
2023-01-31T12:43:25.584Z,52.38
2023-01-31T12:45:55.287Z,52.31
2023-01-31T12:48:45.378Z,52.08
2023-01-31T12:51:59.630Z,52.24
2023-01-31T12:54:29.454Z,52.28
2023-01-31T12:57:33.350Z,52.24
2023-01-31T13:00:37.265Z,52.33
2023-01-31T13:03:41.387Z,52.35
2023-01-31T13:06:16.685Z,52.48
2023-01-31T13:09:07.384Z,52.38
2023-01-31T13:11:45.303Z,52.29
2023-01-31T13:14:21.604Z,52.35
2023-01-31T13:16:53.976Z,52.40
2023-01-31T13:19:36.875Z,52.40
2023-01-31T13:22:20.130Z,52.34
2023-01-31T13:24:53.753Z,52.41
2023-01-31T13:27:30.055Z,52.30
2023-01-31T13:30:02.060Z,52.27
2023-01-31T13:32:43.216Z,52.41
2023-01-31T13:35:26.682Z,52.18
2023-01-31T13:38:07.390Z,52.41
2023-01-31T13:40:46.731Z,52.47
2023-01-31T13:43:14.260Z,52.46
2023-01-31T13:45:52.829Z,52.39
2023-01-31T13:48:33.722Z,52.34
2023-01-31T13:51:07.560Z,52.49
2023-01-31T13:53:40.393Z,52.46
2023-01-31T13:56:12.899Z,52.40
2023-01-31T13:58:40.181Z,52.50
2023-01-31T14:01:17.914Z,52.29
2023-01-31T14:04:09.413Z,52.39
2023-01-31T14:07:02.855Z,52.54
2023-01-31T14:09:34.147Z,52.52
2023-01-31T14:12:22.013Z,52.38
2023-01-31T14:14:57.855Z,52.66
2023-01-31T14:17:27.065Z,52.62
2023-01-31T14:19:55.242Z,52.69
2023-01-31T14:22:23.243Z,52.60
2023-01-31T14:24:50.100Z,52.55
2023-01-31T14:27:30.904Z,52.65
2023-01-31T14:30:06.356Z,52.46
2023-01-31T14:32:51.818Z,52.64
2023-01-31T14:35:49.357Z,52.72
2023-01-31T14:38:40.304Z,52.79
2023-01-31T14:41:22.149Z,52.91
2023-01-31T14:44:19.236Z,52.80
2023-01-31T14:47:05.917Z,52.74
2023-01-31T14:50:11.576Z,52.85
2023-01-31T14:53:01.782Z,52.92
2023-01-31T14:55:42.440Z,53.26
2023-01-31T14:58:25.792Z,53.19
2023-01-31T15:01:02.864Z,52.93
2023-01-31T15:03:35.777Z,53.32
2023-01-31T15:06:27.347Z,53.63
2023-01-31T15:09:12.626Z,53.66
2023-01-31T15:11:42.811Z,53.85
2023-01-31T15:14:37.927Z,53.90
2023-01-31T15:17:33.692Z,54.03
2023-01-31T15:20:18.830Z,54.26
2023-01-31T15:22:46.903Z,54.02
2023-01-31T15:25:40.152Z,54.37
2023-01-31T15:28:10.177Z,54.48
2023-01-31T15:30:40.539Z,54.41
2023-01-31T15:33:13.333Z,54.56
2023-01-31T15:35:54.517Z,54.74
2023-01-31T15:38:56.973Z,54.50
2023-01-31T15:41:39.037Z,54.48
2023-01-31T15:44:31.776Z,54.58
2023-01-31T15:46:58.518Z,54.83
2023-01-31T15:49:39.647Z,54.85
2023-01-31T15:52:22.771Z,54.78
2023-01-31T15:55:17.277Z,54.56
2023-01-31T15:57:56.941Z,54.71
2023-01-31T16:00:34.077Z,54.88
2023-01-31T16:03:02.461Z,54.53
2023-01-31T16:05:33.219Z,54.44
2023-01-31T16:08:01.675Z,54.22
2023-01-31T16:10:30.437Z,54.20
2023-01-31T16:13:16.783Z,54.48
2023-01-31T16:15:44.171Z,54.50
2023-01-31T16:18:12.448Z,54.47
2023-01-31T16:20:40.851Z,54.51
2023-01-31T16:23:31.062Z,54.38
2023-01-31T16:26:07.555Z,54.53
2023-01-31T16:28:41.109Z,54.50
2023-01-31T16:31:14.371Z,54.26
2023-01-31T16:33:55.031Z,54.07
2023-01-31T16:36:52.932Z,54.10
2023-01-31T16:39:40.601Z,54.25
2023-01-31T16:42:22.295Z,54.63
2023-01-31T16:44:49.879Z,54.58
2023-01-31T16:47:44.423Z,54.61
2023-01-31T16:50:17.052Z,54.50
2023-01-31T16:52:45.110Z,54.69
2023-01-31T16:55:17.704Z,54.42
2023-01-31T16:57:44.908Z,54.50
2023-01-31T17:00:23.727Z,54.65
2023-01-31T17:03:01.083Z,54.62
2023-01-31T17:05:41.366Z,54.41
2023-01-31T17:08:18.644Z,54.47
2023-01-31T17:10:49.581Z,54.58
2023-01-31T17:13:18.770Z,54.45
2023-01-31T17:15:45.664Z,54.55
2023-01-31T17:18:12.528Z,54.42
2023-01-31T17:20:45.260Z,54.30
2023-01-31T17:23:13.091Z,54.18
2023-01-31T17:25:40.633Z,54.23
2023-01-31T17:28:07.476Z,54.46
2023-01-31T17:30:37.648Z,54.69
2023-01-31T17:33:04.519Z,54.37
2023-01-31T17:35:33.755Z,54.31
2023-01-31T17:38:00.566Z,54.46
2023-01-31T17:40:27.542Z,54.23
2023-01-31T17:42:58.636Z,54.40
2023-01-31T17:45:25.794Z,54.37
2023-01-31T17:47:52.524Z,54.68
2023-01-31T17:50:27.484Z,54.58
2023-01-31T17:52:55.355Z,54.56
2023-01-31T17:55:24.055Z,54.30
2023-01-31T17:57:51.641Z,54.57
2023-01-31T18:00:19.673Z,54.77
2023-01-31T18:02:46.810Z,54.53
2023-01-31T18:05:18.688Z,54.79
2023-01-31T18:07:49.809Z,54.58
2023-01-31T18:10:16.853Z,54.87
2023-01-31T18:12:43.486Z,55.05
2023-01-31T18:15:10.675Z,54.54
2023-01-31T18:17:37.429Z,54.52
2023-01-31T18:20:07.413Z,54.69
2023-01-31T18:22:34.222Z,54.77
2023-01-31T18:25:00.845Z,54.43
2023-01-31T18:27:27.456Z,54.51
2023-01-31T18:29:55.665Z,54.61
2023-01-31T18:32:22.479Z,54.75
2023-01-31T18:34:49.546Z,54.79
2023-01-31T18:37:20.197Z,54.89
2023-01-31T18:39:51.370Z,55.07
2023-01-31T18:42:19.772Z,54.86
2023-01-31T18:44:47.121Z,54.76
2023-01-31T18:47:15.202Z,55.12
2023-01-31T18:49:42.661Z,55.02
2023-01-31T18:52:09.346Z,54.87
2023-01-31T18:54:37.673Z,54.68
2023-01-31T18:57:04.719Z,54.74
2023-01-31T18:59:33.591Z,54.73
2023-01-31T19:02:00.870Z,54.88
2023-01-31T19:04:27.570Z,54.78
2023-01-31T19:06:54.310Z,54.72
2023-01-31T19:09:22.380Z,54.63
2023-01-31T19:11:49.385Z,54.65
2023-01-31T19:14:16.191Z,54.12
2023-01-31T19:16:44.816Z,54.30
2023-01-31T19:19:12.177Z,54.52
2023-01-31T19:21:39.312Z,54.72
2023-01-31T19:24:10.291Z,54.68
2023-01-31T19:26:37.339Z,54.81
2023-01-31T19:29:04.733Z,54.73
2023-01-31T19:31:33.636Z,54.82
2023-01-31T19:34:03.454Z,54.92
2023-01-31T19:36:33.175Z,54.92
2023-01-31T19:39:02.330Z,55.26
2023-01-31T19:41:29.152Z,54.67
2023-01-31T19:43:58.500Z,54.61
2023-01-31T19:46:27.141Z,54.65
2023-01-31T19:48:55.810Z,54.79
2023-01-31T19:51:23.449Z,54.73
2023-01-31T19:53:50.454Z,54.92
2023-01-31T19:56:17.405Z,54.60
2023-01-31T19:58:44.312Z,54.61
2023-01-31T20:01:18.570Z,54.58
2023-01-31T20:03:45.934Z,54.54
2023-01-31T20:06:19.275Z,54.63
2023-01-31T20:08:50.666Z,54.67
2023-01-31T20:11:18.124Z,54.51
2023-01-31T20:13:45.020Z,54.37
2023-01-31T20:16:13.422Z,54.59
2023-01-31T20:18:41.086Z,54.64
2023-01-31T20:21:09.109Z,54.42
2023-01-31T20:23:35.998Z,54.28
2023-01-31T20:26:03.563Z,54.10
2023-01-31T20:28:30.480Z,54.25
2023-01-31T20:31:04.863Z,53.98
2023-01-31T20:33:31.700Z,54.16
2023-01-31T20:35:58.495Z,54.19
2023-01-31T20:38:25.486Z,53.81
2023-01-31T20:40:54.124Z,53.69
2023-01-31T20:43:22.783Z,53.55
2023-01-31T20:45:49.931Z,53.93
2023-01-31T20:48:17.208Z,54.05
2023-01-31T20:50:44.547Z,53.94
2023-01-31T20:53:20.170Z,53.99
2023-01-31T20:55:54.540Z,54.04
2023-01-31T20:58:21.243Z,54.00
2023-01-31T21:00:48.033Z,54.06
2023-01-31T21:03:14.819Z,53.96
2023-01-31T21:05:41.584Z,53.96
2023-01-31T21:08:08.421Z,54.00
2023-01-31T21:10:35.263Z,53.82
2023-01-31T21:13:01.884Z,54.25
2023-01-31T21:15:29.136Z,53.98
2023-01-31T21:17:56.210Z,54.02
2023-01-31T21:20:23.163Z,54.26
2023-01-31T21:22:50.537Z,54.05
2023-01-31T21:25:17.487Z,53.87
2023-01-31T21:27:44.288Z,53.82
2023-01-31T21:30:11.563Z,53.80
2023-01-31T21:32:38.164Z,53.92
2023-01-31T21:35:05.225Z,53.99
2023-01-31T21:37:31.939Z,54.00
2023-01-31T21:39:58.633Z,54.02
2023-01-31T21:42:25.503Z,53.93
2023-01-31T21:44:52.332Z,53.85
2023-01-31T21:47:19.997Z,53.90
2023-01-31T21:49:46.624Z,53.86
2023-01-31T21:52:13.413Z,54.06
2023-01-31T21:54:40.195Z,54.02
2023-01-31T21:57:06.985Z,54.03
2023-01-31T21:59:33.851Z,54.18
2023-01-31T22:02:00.627Z,54.45
2023-01-31T22:04:27.320Z,54.06
2023-01-31T22:06:55.511Z,54.33
2023-01-31T22:09:22.258Z,54.39
2023-01-31T22:11:49.929Z,54.50
2023-01-31T22:14:16.916Z,54.49
2023-01-31T22:16:47.045Z,54.27
2023-01-31T22:19:14.685Z,54.39
2023-01-31T22:21:42.505Z,54.64
2023-01-31T22:24:11.518Z,54.83
2023-01-31T22:26:41.447Z,54.78
2023-01-31T22:29:10.778Z,55.17
2023-01-31T22:31:38.191Z,55.05
2023-01-31T22:34:06.441Z,54.93
2023-01-31T22:36:36.383Z,55.07
2023-01-31T22:39:05.698Z,55.34
2023-01-31T22:41:32.610Z,54.81
2023-01-31T22:43:59.301Z,55.24
2023-01-31T22:46:32.096Z,54.72
2023-01-31T22:48:58.903Z,55.25
2023-01-31T22:51:27.177Z,54.96
2023-01-31T22:53:55.890Z,55.14
2023-01-31T22:56:28.558Z,55.10
2023-01-31T22:59:00.126Z,55.44
2023-01-31T23:01:30.056Z,55.21
2023-01-31T23:03:58.840Z,54.96
2023-01-31T23:06:32.447Z,55.58
2023-01-31T23:09:01.942Z,55.22
2023-01-31T23:11:28.727Z,55.23
2023-01-31T23:13:57.227Z,55.28
2023-01-31T23:16:43.795Z,55.18
2023-01-31T23:19:11.744Z,55.13
2023-01-31T23:21:42.689Z,55.42
2023-01-31T23:24:11.049Z,55.49
2023-01-31T23:26:37.817Z,55.19
2023-01-31T23:29:04.771Z,55.35
2023-01-31T23:31:32.535Z,55.52
2023-01-31T23:34:00.650Z,55.51
2023-01-31T23:36:27.712Z,56.09
2023-01-31T23:38:54.619Z,55.78
2023-01-31T23:41:21.426Z,55.52
2023-01-31T23:43:48.382Z,55.87
2023-01-31T23:46:15.011Z,56.48
2023-01-31T23:48:42.189Z,56.78
2023-01-31T23:51:09.156Z,56.92
2023-01-31T23:53:35.990Z,56.82
2023-01-31T23:56:02.715Z,56.97
2023-01-31T23:58:29.441Z,56.87
